sensor_id;sensor_type;location;lat;lon;timestamp;P1;durP1;ratioP1;P2;durP2;ratioP2
73266;SDS011;61495;53.400;7.608;2024-03-22T00:00:46;23.58;;;12.63;;
73266;SDS011;61495;53.400;7.608;2024-03-22T00:04:11;27.98;;;13.77;;
73266;SDS011;61495;53.400;7.608;2024-03-22T00:07:35;24.73;;;13.05;;
73266;SDS011;61495;53.400;7.608;2024-03-22T00:10:59;27.63;;;13.65;;
73266;SDS011;61495;53.400;7.608;2024-03-22T00:14:23;25.15;;;14.50;;
73266;SDS011;61495;53.400;7.608;2024-03-22T00:17:47;24.70;;;13.45;;
73266;SDS011;61495;53.400;7.608;2024-03-22T00:21:11;22.02;;;11.95;;
73266;SDS011;61495;53.400;7.608;2024-03-22T00:24:35;27.00;;;14.20;;
73266;SDS011;61495;53.400;7.608;2024-03-22T00:27:58;24.88;;;13.30;;
73266;SDS011;61495;53.400;7.608;2024-03-22T00:31:25;24.27;;;13.90;;
73266;SDS011;61495;53.400;7.608;2024-03-22T00:34:49;24.45;;;13.07;;
73266;SDS011;61495;53.400;7.608;2024-03-22T00:38:13;25.23;;;13.95;;
73266;SDS011;61495;53.400;7.608;2024-03-22T00:41:37;22.92;;;13.25;;
73266;SDS011;61495;53.400;7.608;2024-03-22T00:45:01;29.55;;;14.38;;
73266;SDS011;61495;53.400;7.608;2024-03-22T00:48:27;25.90;;;15.05;;
73266;SDS011;61495;53.400;7.608;2024-03-22T00:51:51;29.25;;;14.82;;
73266;SDS011;61495;53.400;7.608;2024-03-22T00:55:15;26.38;;;13.50;;
73266;SDS011;61495;53.400;7.608;2024-03-22T00:58:39;31.20;;;15.55;;
73266;SDS011;61495;53.400;7.608;2024-03-22T01:02:03;30.13;;;15.30;;
73266;SDS011;61495;53.400;7.608;2024-03-22T01:05:27;27.98;;;15.70;;
73266;SDS011;61495;53.400;7.608;2024-03-22T01:08:56;33.90;;;14.95;;
73266;SDS011;61495;53.400;7.608;2024-03-22T01:12:20;29.33;;;16.63;;
73266;SDS011;61495;53.400;7.608;2024-03-22T01:15:44;28.15;;;14.68;;
73266;SDS011;61495;53.400;7.608;2024-03-22T01:19:07;27.65;;;14.93;;
73266;SDS011;61495;53.400;7.608;2024-03-22T01:22:31;30.20;;;15.10;;
73266;SDS011;61495;53.400;7.608;2024-03-22T01:25:55;27.50;;;14.00;;
73266;SDS011;61495;53.400;7.608;2024-03-22T01:29:19;29.00;;;13.73;;
73266;SDS011;61495;53.400;7.608;2024-03-22T01:32:43;30.15;;;15.07;;
73266;SDS011;61495;53.400;7.608;2024-03-22T01:36:07;29.35;;;15.20;;
73266;SDS011;61495;53.400;7.608;2024-03-22T01:39:31;26.38;;;14.35;;
73266;SDS011;61495;53.400;7.608;2024-03-22T01:42:56;31.27;;;14.98;;
73266;SDS011;61495;53.400;7.608;2024-03-22T01:46:20;35.10;;;15.40;;
73266;SDS011;61495;53.400;7.608;2024-03-22T01:49:44;27.60;;;15.13;;
73266;SDS011;61495;53.400;7.608;2024-03-22T01:53:08;30.83;;;15.88;;
73266;SDS011;61495;53.400;7.608;2024-03-22T01:56:34;32.17;;;15.65;;
73266;SDS011;61495;53.400;7.608;2024-03-22T02:03:23;32.35;;;15.95;;
73266;SDS011;61495;53.400;7.608;2024-03-22T02:06:47;31.48;;;16.15;;
73266;SDS011;61495;53.400;7.608;2024-03-22T02:10:11;31.98;;;15.63;;
73266;SDS011;61495;53.400;7.608;2024-03-22T02:13:35;36.13;;;16.35;;
73266;SDS011;61495;53.400;7.608;2024-03-22T02:16:59;36.75;;;17.65;;
73266;SDS011;61495;53.400;7.608;2024-03-22T02:20:23;31.33;;;16.13;;
73266;SDS011;61495;53.400;7.608;2024-03-22T02:23:47;32.75;;;16.42;;
73266;SDS011;61495;53.400;7.608;2024-03-22T02:27:11;33.22;;;16.27;;
73266;SDS011;61495;53.400;7.608;2024-03-22T02:30:35;38.58;;;18.00;;
73266;SDS011;61495;53.400;7.608;2024-03-22T02:33:58;32.72;;;17.40;;
73266;SDS011;61495;53.400;7.608;2024-03-22T02:37:22;39.80;;;18.52;;
73266;SDS011;61495;53.400;7.608;2024-03-22T02:40:47;36.60;;;18.85;;
73266;SDS011;61495;53.400;7.608;2024-03-22T02:44:11;39.17;;;18.42;;
73266;SDS011;61495;53.400;7.608;2024-03-22T02:47:35;39.58;;;18.02;;
73266;SDS011;61495;53.400;7.608;2024-03-22T02:50:59;37.92;;;19.55;;
73266;SDS011;61495;53.400;7.608;2024-03-22T02:54:23;35.90;;;17.35;;
73266;SDS011;61495;53.400;7.608;2024-03-22T02:57:46;39.72;;;19.33;;
73266;SDS011;61495;53.400;7.608;2024-03-22T03:01:13;39.58;;;18.98;;
73266;SDS011;61495;53.400;7.608;2024-03-22T03:04:37;37.33;;;20.15;;
73266;SDS011;61495;53.400;7.608;2024-03-22T03:08:01;38.05;;;18.85;;
73266;SDS011;61495;53.400;7.608;2024-03-22T03:11:25;37.08;;;17.77;;
73266;SDS011;61495;53.400;7.608;2024-03-22T03:14:49;44.55;;;19.58;;
73266;SDS011;61495;53.400;7.608;2024-03-22T03:18:13;39.42;;;19.42;;
73266;SDS011;61495;53.400;7.608;2024-03-22T03:21:37;42.58;;;18.65;;
73266;SDS011;61495;53.400;7.608;2024-03-22T03:25:01;40.65;;;20.70;;
73266;SDS011;61495;53.400;7.608;2024-03-22T03:28:25;43.22;;;21.35;;
73266;SDS011;61495;53.400;7.608;2024-03-22T03:31:48;44.83;;;20.52;;
73266;SDS011;61495;53.400;7.608;2024-03-22T03:35:12;43.58;;;20.27;;
73266;SDS011;61495;53.400;7.608;2024-03-22T03:38:39;45.13;;;21.58;;
73266;SDS011;61495;53.400;7.608;2024-03-22T03:42:03;43.75;;;20.48;;
73266;SDS011;61495;53.400;7.608;2024-03-22T03:45:27;41.05;;;19.23;;
73266;SDS011;61495;53.400;7.608;2024-03-22T03:48:51;42.72;;;22.35;;
73266;SDS011;61495;53.400;7.608;2024-03-22T03:52:15;42.45;;;20.80;;
73266;SDS011;61495;53.400;7.608;2024-03-22T03:55:39;44.67;;;20.67;;
73266;SDS011;61495;53.400;7.608;2024-03-22T03:59:03;48.83;;;22.42;;
73266;SDS011;61495;53.400;7.608;2024-03-22T04:02:27;49.78;;;22.52;;
73266;SDS011;61495;53.400;7.608;2024-03-22T04:05:57;40.08;;;20.27;;
73266;SDS011;61495;53.400;7.608;2024-03-22T04:09:21;44.47;;;21.08;;
73266;SDS011;61495;53.400;7.608;2024-03-22T04:12:45;41.47;;;20.40;;
73266;SDS011;61495;53.400;7.608;2024-03-22T04:16:09;46.45;;;21.42;;
73266;SDS011;61495;53.400;7.608;2024-03-22T04:19:33;43.85;;;21.80;;
73266;SDS011;61495;53.400;7.608;2024-03-22T04:22:57;51.75;;;22.92;;
73266;SDS011;61495;53.400;7.608;2024-03-22T04:26:21;41.22;;;21.17;;
73266;SDS011;61495;53.400;7.608;2024-03-22T04:29:47;45.75;;;21.52;;
73266;SDS011;61495;53.400;7.608;2024-03-22T04:33:28;43.92;;;22.30;;
73266;SDS011;61495;53.400;7.608;2024-03-22T04:36:52;44.00;;;21.73;;
73266;SDS011;61495;53.400;7.608;2024-03-22T04:40:15;46.42;;;22.35;;
73266;SDS011;61495;53.400;7.608;2024-03-22T04:43:39;46.72;;;21.42;;
73266;SDS011;61495;53.400;7.608;2024-03-22T04:47:03;48.72;;;22.23;;
73266;SDS011;61495;53.400;7.608;2024-03-22T04:50:28;50.00;;;22.50;;
73266;SDS011;61495;53.400;7.608;2024-03-22T04:53:52;45.95;;;21.67;;
73266;SDS011;61495;53.400;7.608;2024-03-22T04:57:16;52.10;;;24.80;;
73266;SDS011;61495;53.400;7.608;2024-03-22T05:00:41;47.13;;;22.80;;
73266;SDS011;61495;53.400;7.608;2024-03-22T05:04:05;44.35;;;23.65;;
73266;SDS011;61495;53.400;7.608;2024-03-22T05:07:34;41.10;;;21.55;;
73266;SDS011;61495;53.400;7.608;2024-03-22T05:10:58;50.72;;;24.30;;
73266;SDS011;61495;53.400;7.608;2024-03-22T05:14:22;54.83;;;23.98;;
73266;SDS011;61495;53.400;7.608;2024-03-22T05:17:45;47.60;;;23.35;;
73266;SDS011;61495;53.400;7.608;2024-03-22T05:21:09;45.38;;;20.95;;
73266;SDS011;61495;53.400;7.608;2024-03-22T05:24:33;51.05;;;23.70;;
73266;SDS011;61495;53.400;7.608;2024-03-22T05:27:57;52.58;;;23.60;;
73266;SDS011;61495;53.400;7.608;2024-03-22T05:31:21;51.53;;;24.73;;
73266;SDS011;61495;53.400;7.608;2024-03-22T05:34:45;49.35;;;24.23;;
73266;SDS011;61495;53.400;7.608;2024-03-22T05:38:08;49.95;;;22.88;;
73266;SDS011;61495;53.400;7.608;2024-03-22T05:41:33;49.25;;;23.67;;
73266;SDS011;61495;53.400;7.608;2024-03-22T05:44:56;49.95;;;23.50;;
73266;SDS011;61495;53.400;7.608;2024-03-22T05:48:20;48.30;;;24.55;;
73266;SDS011;61495;53.400;7.608;2024-03-22T05:51:45;52.63;;;25.08;;
73266;SDS011;61495;53.400;7.608;2024-03-22T05:55:08;50.72;;;24.30;;
73266;SDS011;61495;53.400;7.608;2024-03-22T05:58:32;52.00;;;23.42;;
73266;SDS011;61495;53.400;7.608;2024-03-22T06:01:56;47.67;;;21.85;;
73266;SDS011;61495;53.400;7.608;2024-03-22T06:05:21;53.53;;;25.08;;
73266;SDS011;61495;53.400;7.608;2024-03-22T06:08:50;47.17;;;23.02;;
73266;SDS011;61495;53.400;7.608;2024-03-22T06:12:16;50.92;;;23.67;;
73266;SDS011;61495;53.400;7.608;2024-03-22T06:15:42;53.58;;;23.65;;
73266;SDS011;61495;53.400;7.608;2024-03-22T06:19:06;49.25;;;23.38;;
73266;SDS011;61495;53.400;7.608;2024-03-22T06:22:34;50.38;;;21.88;;
73266;SDS011;61495;53.400;7.608;2024-03-22T06:25:59;43.22;;;21.48;;
73266;SDS011;61495;53.400;7.608;2024-03-22T06:29:23;48.28;;;22.80;;
73266;SDS011;61495;53.400;7.608;2024-03-22T06:32:46;53.80;;;23.80;;
73266;SDS011;61495;53.400;7.608;2024-03-22T06:36:11;50.05;;;23.80;;
73266;SDS011;61495;53.400;7.608;2024-03-22T06:39:34;53.95;;;23.70;;
73266;SDS011;61495;53.400;7.608;2024-03-22T06:42:59;47.95;;;22.70;;
73266;SDS011;61495;53.400;7.608;2024-03-22T06:46:23;45.65;;;21.55;;
73266;SDS011;61495;53.400;7.608;2024-03-22T06:49:48;47.22;;;22.55;;
73266;SDS011;61495;53.400;7.608;2024-03-22T06:53:12;44.28;;;22.52;;
73266;SDS011;61495;53.400;7.608;2024-03-22T06:56:36;46.63;;;23.15;;
73266;SDS011;61495;53.400;7.608;2024-03-22T06:59:59;42.90;;;20.88;;
73266;SDS011;61495;53.400;7.608;2024-03-22T07:03:23;43.70;;;22.17;;
73266;SDS011;61495;53.400;7.608;2024-03-22T07:06:47;45.05;;;21.00;;
73266;SDS011;61495;53.400;7.608;2024-03-22T07:10:11;40.60;;;20.17;;
73266;SDS011;61495;53.400;7.608;2024-03-22T07:13:35;38.47;;;21.60;;
73266;SDS011;61495;53.400;7.608;2024-03-22T07:16:59;44.58;;;19.70;;
73266;SDS011;61495;53.400;7.608;2024-03-22T07:20:23;43.63;;;18.75;;
73266;SDS011;61495;53.400;7.608;2024-03-22T07:23:47;40.03;;;21.08;;
73266;SDS011;61495;53.400;7.608;2024-03-22T07:27:12;35.97;;;17.60;;
73266;SDS011;61495;53.400;7.608;2024-03-22T07:30:37;36.63;;;17.92;;
73266;SDS011;61495;53.400;7.608;2024-03-22T07:34:00;32.13;;;17.58;;
73266;SDS011;61495;53.400;7.608;2024-03-22T07:40:49;34.15;;;16.30;;
73266;SDS011;61495;53.400;7.608;2024-03-22T07:44:14;28.80;;;14.95;;
73266;SDS011;61495;53.400;7.608;2024-03-22T07:47:38;29.50;;;14.45;;
73266;SDS011;61495;53.400;7.608;2024-03-22T07:51:02;25.65;;;13.35;;
73266;SDS011;61495;53.400;7.608;2024-03-22T07:54:26;27.52;;;12.00;;
73266;SDS011;61495;53.400;7.608;2024-03-22T07:57:50;23.10;;;11.75;;
73266;SDS011;61495;53.400;7.608;2024-03-22T08:01:14;24.95;;;12.13;;
73266;SDS011;61495;53.400;7.608;2024-03-22T08:04:38;23.90;;;12.50;;
73266;SDS011;61495;53.400;7.608;2024-03-22T08:08:02;24.38;;;11.82;;
73266;SDS011;61495;53.400;7.608;2024-03-22T08:11:27;24.95;;;12.98;;
73266;SDS011;61495;53.400;7.608;2024-03-22T08:14:51;24.40;;;13.07;;
73266;SDS011;61495;53.400;7.608;2024-03-22T08:18:15;25.10;;;12.30;;
73266;SDS011;61495;53.400;7.608;2024-03-22T08:21:39;25.60;;;13.13;;
73266;SDS011;61495;53.400;7.608;2024-03-22T08:25:03;25.85;;;13.23;;
73266;SDS011;61495;53.400;7.608;2024-03-22T08:28:27;23.70;;;12.35;;
73266;SDS011;61495;53.400;7.608;2024-03-22T08:31:51;21.38;;;11.45;;
73266;SDS011;61495;53.400;7.608;2024-03-22T08:35:15;22.20;;;11.20;;
73266;SDS011;61495;53.400;7.608;2024-03-22T08:38:39;27.95;;;12.95;;
73266;SDS011;61495;53.400;7.608;2024-03-22T08:42:03;22.85;;;12.10;;
73266;SDS011;61495;53.400;7.608;2024-03-22T08:45:27;23.33;;;11.25;;
73266;SDS011;61495;53.400;7.608;2024-03-22T08:48:53;18.67;;;10.38;;
73266;SDS011;61495;53.400;7.608;2024-03-22T08:52:16;18.60;;;9.80;;
73266;SDS011;61495;53.400;7.608;2024-03-22T08:55:49;16.02;;;9.63;;
73266;SDS011;61495;53.400;7.608;2024-03-22T08:59:13;17.73;;;9.23;;
73266;SDS011;61495;53.400;7.608;2024-03-22T09:02:37;16.40;;;8.05;;
73266;SDS011;61495;53.400;7.608;2024-03-22T09:06:01;17.10;;;8.75;;
73266;SDS011;61495;53.400;7.608;2024-03-22T09:09:25;16.65;;;8.13;;
73266;SDS011;61495;53.400;7.608;2024-03-22T09:12:49;16.42;;;8.45;;
73266;SDS011;61495;53.400;7.608;2024-03-22T09:16:16;15.63;;;8.48;;
73266;SDS011;61495;53.400;7.608;2024-03-22T09:19:39;14.95;;;8.13;;
73266;SDS011;61495;53.400;7.608;2024-03-22T09:23:03;17.42;;;8.20;;
73266;SDS011;61495;53.400;7.608;2024-03-22T09:26:28;14.25;;;7.82;;
73266;SDS011;61495;53.400;7.608;2024-03-22T09:29:52;13.02;;;7.70;;
73266;SDS011;61495;53.400;7.608;2024-03-22T09:33:16;12.68;;;7.10;;
73266;SDS011;61495;53.400;7.608;2024-03-22T09:36:41;14.27;;;7.32;;
73266;SDS011;61495;53.400;7.608;2024-03-22T09:40:05;9.40;;;5.40;;
73266;SDS011;61495;53.400;7.608;2024-03-22T09:43:30;8.38;;;5.28;;
73266;SDS011;61495;53.400;7.608;2024-03-22T09:46:55;9.05;;;4.90;;
73266;SDS011;61495;53.400;7.608;2024-03-22T09:50:21;7.50;;;3.80;;
73266;SDS011;61495;53.400;7.608;2024-03-22T09:53:47;7.35;;;3.75;;
73266;SDS011;61495;53.400;7.608;2024-03-22T09:57:15;7.30;;;3.33;;
73266;SDS011;61495;53.400;7.608;2024-03-22T10:00:39;7.47;;;4.00;;
73266;SDS011;61495;53.400;7.608;2024-03-22T10:04:04;7.72;;;3.70;;
73266;SDS011;61495;53.400;7.608;2024-03-22T10:07:29;5.15;;;2.75;;
73266;SDS011;61495;53.400;7.608;2024-03-22T10:10:52;6.13;;;3.35;;
73266;SDS011;61495;53.400;7.608;2024-03-22T10:14:16;7.70;;;3.58;;
73266;SDS011;61495;53.400;7.608;2024-03-22T10:17:41;4.63;;;2.58;;
73266;SDS011;61495;53.400;7.608;2024-03-22T10:21:05;5.78;;;2.28;;
73266;SDS011;61495;53.400;7.608;2024-03-22T10:24:30;5.35;;;2.70;;
73266;SDS011;61495;53.400;7.608;2024-03-22T10:27:54;5.25;;;2.65;;
73266;SDS011;61495;53.400;7.608;2024-03-22T10:31:18;4.60;;;2.10;;
73266;SDS011;61495;53.400;7.608;2024-03-22T10:34:43;4.78;;;2.20;;
73266;SDS011;61495;53.400;7.608;2024-03-22T10:38:08;4.93;;;2.47;;
73266;SDS011;61495;53.400;7.608;2024-03-22T10:41:33;5.72;;;2.22;;
73266;SDS011;61495;53.400;7.608;2024-03-22T10:45:02;5.35;;;2.22;;
73266;SDS011;61495;53.400;7.608;2024-03-22T10:48:29;4.43;;;2.53;;
73266;SDS011;61495;53.400;7.608;2024-03-22T10:51:56;4.32;;;1.90;;
73266;SDS011;61495;53.400;7.608;2024-03-22T10:58:51;3.78;;;1.92;;
73266;SDS011;61495;53.400;7.608;2024-03-22T11:02:19;3.42;;;1.60;;
73266;SDS011;61495;53.400;7.608;2024-03-22T11:05:46;3.28;;;1.67;;
73266;SDS011;61495;53.400;7.608;2024-03-22T11:09:22;3.03;;;1.50;;
73266;SDS011;61495;53.400;7.608;2024-03-22T11:12:50;2.85;;;1.13;;
73266;SDS011;61495;53.400;7.608;2024-03-22T11:16:14;3.55;;;1.40;;
73266;SDS011;61495;53.400;7.608;2024-03-22T11:19:39;3.90;;;1.85;;
73266;SDS011;61495;53.400;7.608;2024-03-22T11:23:04;2.80;;;1.48;;
73266;SDS011;61495;53.400;7.608;2024-03-22T11:26:28;3.20;;;1.10;;
73266;SDS011;61495;53.400;7.608;2024-03-22T11:29:52;5.43;;;2.33;;
73266;SDS011;61495;53.400;7.608;2024-03-22T11:33:15;4.18;;;1.23;;
73266;SDS011;61495;53.400;7.608;2024-03-22T11:36:46;2.83;;;1.20;;
73266;SDS011;61495;53.400;7.608;2024-03-22T11:40:10;2.70;;;1.15;;
73266;SDS011;61495;53.400;7.608;2024-03-22T11:43:35;2.80;;;1.75;;
73266;SDS011;61495;53.400;7.608;2024-03-22T11:47:01;2.40;;;1.10;;
73266;SDS011;61495;53.400;7.608;2024-03-22T11:50:28;3.00;;;1.50;;
73266;SDS011;61495;53.400;7.608;2024-03-22T11:53:52;2.25;;;1.20;;
73266;SDS011;61495;53.400;7.608;2024-03-22T11:57:18;2.97;;;1.23;;
73266;SDS011;61495;53.400;7.608;2024-03-22T12:00:43;2.85;;;1.50;;
73266;SDS011;61495;53.400;7.608;2024-03-22T12:04:07;3.00;;;1.20;;
73266;SDS011;61495;53.400;7.608;2024-03-22T12:07:36;2.40;;;1.13;;
73266;SDS011;61495;53.400;7.608;2024-03-22T12:11:00;2.92;;;0.95;;
73266;SDS011;61495;53.400;7.608;2024-03-22T12:14:24;3.50;;;1.52;;
73266;SDS011;61495;53.400;7.608;2024-03-22T12:17:48;1.98;;;1.00;;
73266;SDS011;61495;53.400;7.608;2024-03-22T12:21:11;1.83;;;0.85;;
73266;SDS011;61495;53.400;7.608;2024-03-22T12:24:36;2.28;;;0.80;;
73266;SDS011;61495;53.400;7.608;2024-03-22T12:28:00;2.00;;;0.90;;
73266;SDS011;61495;53.400;7.608;2024-03-22T12:31:24;3.00;;;1.08;;
73266;SDS011;61495;53.400;7.608;2024-03-22T12:34:47;3.60;;;1.25;;
73266;SDS011;61495;53.400;7.608;2024-03-22T12:38:13;3.35;;;1.60;;
73266;SDS011;61495;53.400;7.608;2024-03-22T12:41:37;5.22;;;2.10;;
73266;SDS011;61495;53.400;7.608;2024-03-22T12:45:01;6.32;;;2.20;;
73266;SDS011;61495;53.400;7.608;2024-03-22T12:48:25;6.55;;;2.53;;
73266;SDS011;61495;53.400;7.608;2024-03-22T12:51:49;4.43;;;1.85;;
73266;SDS011;61495;53.400;7.608;2024-03-22T12:55:12;8.48;;;2.47;;
73266;SDS011;61495;53.400;7.608;2024-03-22T12:58:37;8.88;;;2.85;;
73266;SDS011;61495;53.400;7.608;2024-03-22T13:02:00;9.13;;;2.40;;
73266;SDS011;61495;53.400;7.608;2024-03-22T13:05:25;6.53;;;1.98;;
73266;SDS011;61495;53.400;7.608;2024-03-22T13:08:54;9.05;;;2.42;;
73266;SDS011;61495;53.400;7.608;2024-03-22T13:12:18;8.32;;;1.92;;
73266;SDS011;61495;53.400;7.608;2024-03-22T13:15:43;10.45;;;3.42;;
73266;SDS011;61495;53.400;7.608;2024-03-22T13:19:06;7.25;;;2.30;;
73266;SDS011;61495;53.400;7.608;2024-03-22T13:22:36;13.43;;;2.40;;
73266;SDS011;61495;53.400;7.608;2024-03-22T13:26:04;8.50;;;1.83;;
73266;SDS011;61495;53.400;7.608;2024-03-22T13:29:28;7.95;;;2.28;;
73266;SDS011;61495;53.400;7.608;2024-03-22T13:32:52;6.82;;;3.20;;
73266;SDS011;61495;53.400;7.608;2024-03-22T13:36:16;8.35;;;2.08;;
73266;SDS011;61495;53.400;7.608;2024-03-22T13:39:39;14.70;;;3.70;;
73266;SDS011;61495;53.400;7.608;2024-03-22T13:43:05;11.07;;;2.35;;
73266;SDS011;61495;53.400;7.608;2024-03-22T13:46:31;8.82;;;1.98;;
73266;SDS011;61495;53.400;7.608;2024-03-22T13:49:55;13.23;;;2.53;;
73266;SDS011;61495;53.400;7.608;2024-03-22T13:53:19;5.47;;;2.22;;
73266;SDS011;61495;53.400;7.608;2024-03-22T13:56:43;9.15;;;3.72;;
73266;SDS011;61495;53.400;7.608;2024-03-22T14:00:07;10.38;;;3.10;;
73266;SDS011;61495;53.400;7.608;2024-03-22T14:03:31;7.72;;;3.00;;
73266;SDS011;61495;53.400;7.608;2024-03-22T14:06:56;9.40;;;3.38;;
73266;SDS011;61495;53.400;7.608;2024-03-22T14:10:20;8.07;;;2.85;;
73266;SDS011;61495;53.400;7.608;2024-03-22T14:13:44;8.23;;;3.92;;
73266;SDS011;61495;53.400;7.608;2024-03-22T14:17:08;5.30;;;2.40;;
73266;SDS011;61495;53.400;7.608;2024-03-22T14:20:32;7.72;;;2.38;;
73266;SDS011;61495;53.400;7.608;2024-03-22T14:23:56;7.20;;;3.08;;
73266;SDS011;61495;53.400;7.608;2024-03-22T14:27:20;7.88;;;2.55;;
73266;SDS011;61495;53.400;7.608;2024-03-22T14:30:43;9.90;;;2.90;;
73266;SDS011;61495;53.400;7.608;2024-03-22T14:34:09;8.32;;;2.85;;
73266;SDS011;61495;53.400;7.608;2024-03-22T14:37:34;6.40;;;2.33;;
73266;SDS011;61495;53.400;7.608;2024-03-22T14:40:58;7.07;;;2.00;;
73266;SDS011;61495;53.400;7.608;2024-03-22T14:44:22;8.48;;;2.80;;
73266;SDS011;61495;53.400;7.608;2024-03-22T14:47:46;9.38;;;2.30;;
73266;SDS011;61495;53.400;7.608;2024-03-22T14:51:10;8.30;;;2.55;;
73266;SDS011;61495;53.400;7.608;2024-03-22T14:54:34;8.93;;;3.55;;
73266;SDS011;61495;53.400;7.608;2024-03-22T14:57:58;11.43;;;3.40;;
73266;SDS011;61495;53.400;7.608;2024-03-22T15:01:22;10.82;;;3.40;;
73266;SDS011;61495;53.400;7.608;2024-03-22T15:04:46;11.68;;;3.40;;
73266;SDS011;61495;53.400;7.608;2024-03-22T15:08:10;9.63;;;3.50;;
73266;SDS011;61495;53.400;7.608;2024-03-22T15:11:36;15.93;;;3.55;;
73266;SDS011;61495;53.400;7.608;2024-03-22T15:15:00;12.15;;;3.45;;
73266;SDS011;61495;53.400;7.608;2024-03-22T15:18:28;10.88;;;3.03;;
73266;SDS011;61495;53.400;7.608;2024-03-22T15:21:52;12.18;;;4.10;;
73266;SDS011;61495;53.400;7.608;2024-03-22T15:25:15;14.35;;;3.63;;
73266;SDS011;61495;53.400;7.608;2024-03-22T15:28:39;12.85;;;4.10;;
73266;SDS011;61495;53.400;7.608;2024-03-22T15:32:04;17.20;;;3.78;;
73266;SDS011;61495;53.400;7.608;2024-03-22T15:35:32;9.07;;;3.33;;
73266;SDS011;61495;53.400;7.608;2024-03-22T15:42:19;10.13;;;3.45;;
73266;SDS011;61495;53.400;7.608;2024-03-22T15:45:43;11.75;;;3.08;;
73266;SDS011;61495;53.400;7.608;2024-03-22T15:49:07;15.07;;;3.83;;
73266;SDS011;61495;53.400;7.608;2024-03-22T15:52:32;12.57;;;2.67;;
73266;SDS011;61495;53.400;7.608;2024-03-22T15:54:57;13.55;;;3.10;;
73266;SDS011;61495;53.400;7.608;2024-03-22T15:57:24;11.73;;;3.33;;
73266;SDS011;61495;53.400;7.608;2024-03-22T15:59:53;14.60;;;2.83;;
73266;SDS011;61495;53.400;7.608;2024-03-22T16:02:18;9.73;;;2.70;;
73266;SDS011;61495;53.400;7.608;2024-03-22T16:05:48;8.85;;;2.78;;
73266;SDS011;61495;53.400;7.608;2024-03-22T16:09:10;11.05;;;2.80;;
73266;SDS011;61495;53.400;7.608;2024-03-22T16:12:34;11.40;;;3.08;;
73266;SDS011;61495;53.400;7.608;2024-03-22T16:15:58;18.95;;;4.30;;
73266;SDS011;61495;53.400;7.608;2024-03-22T16:19:22;14.18;;;2.75;;
73266;SDS011;61495;53.400;7.608;2024-03-22T16:22:46;11.15;;;3.45;;
73266;SDS011;61495;53.400;7.608;2024-03-22T16:26:09;13.95;;;4.25;;
73266;SDS011;61495;53.400;7.608;2024-03-22T16:29:33;11.25;;;2.38;;
73266;SDS011;61495;53.400;7.608;2024-03-22T16:32:58;14.15;;;3.05;;
73266;SDS011;61495;53.400;7.608;2024-03-22T16:36:22;18.05;;;3.17;;
73266;SDS011;61495;53.400;7.608;2024-03-22T16:39:46;11.80;;;2.50;;
73266;SDS011;61495;53.400;7.608;2024-03-22T16:43:09;18.90;;;3.58;;
73266;SDS011;61495;53.400;7.608;2024-03-22T16:46:33;11.57;;;2.90;;
73266;SDS011;61495;53.400;7.608;2024-03-22T16:49:57;12.55;;;3.42;;
73266;SDS011;61495;53.400;7.608;2024-03-22T16:53:21;11.05;;;3.15;;
73266;SDS011;61495;53.400;7.608;2024-03-22T16:56:45;16.70;;;4.38;;
73266;SDS011;61495;53.400;7.608;2024-03-22T17:03:34;14.65;;;4.28;;
73266;SDS011;61495;53.400;7.608;2024-03-22T17:06:58;13.43;;;3.83;;
73266;SDS011;61495;53.400;7.608;2024-03-22T17:10:22;11.98;;;2.65;;
73266;SDS011;61495;53.400;7.608;2024-03-22T17:13:46;10.68;;;2.58;;
73266;SDS011;61495;53.400;7.608;2024-03-22T17:17:10;10.05;;;2.42;;
73266;SDS011;61495;53.400;7.608;2024-03-22T17:20:34;17.92;;;3.13;;
73266;SDS011;61495;53.400;7.608;2024-03-22T17:23:58;16.05;;;2.97;;
73266;SDS011;61495;53.400;7.608;2024-03-22T17:27:21;18.83;;;4.03;;
73266;SDS011;61495;53.400;7.608;2024-03-22T17:30:45;13.40;;;4.32;;
73266;SDS011;61495;53.400;7.608;2024-03-22T17:34:09;16.67;;;6.00;;
73266;SDS011;61495;53.400;7.608;2024-03-22T17:37:35;17.30;;;6.32;;
73266;SDS011;61495;53.400;7.608;2024-03-22T17:40:58;17.52;;;5.50;;
73266;SDS011;61495;53.400;7.608;2024-03-22T17:44:22;15.68;;;4.85;;
73266;SDS011;61495;53.400;7.608;2024-03-22T17:47:46;14.73;;;4.68;;
73266;SDS011;61495;53.400;7.608;2024-03-22T17:51:10;18.98;;;4.43;;
73266;SDS011;61495;53.400;7.608;2024-03-22T17:54:35;16.52;;;3.67;;
73266;SDS011;61495;53.400;7.608;2024-03-22T17:57:59;14.60;;;2.70;;
73266;SDS011;61495;53.400;7.608;2024-03-22T18:01:23;12.30;;;3.10;;
73266;SDS011;61495;53.400;7.608;2024-03-22T18:04:29;11.88;;;3.65;;
73266;SDS011;61495;53.400;7.608;2024-03-22T18:07:53;10.98;;;3.33;;
73266;SDS011;61495;53.400;7.608;2024-03-22T18:11:17;14.50;;;2.80;;
73266;SDS011;61495;53.400;7.608;2024-03-22T18:14:42;9.25;;;2.80;;
73266;SDS011;61495;53.400;7.608;2024-03-22T18:18:06;9.98;;;3.50;;
73266;SDS011;61495;53.400;7.608;2024-03-22T18:24:55;16.92;;;3.45;;
73266;SDS011;61495;53.400;7.608;2024-03-22T18:28:19;13.40;;;3.92;;
73266;SDS011;61495;53.400;7.608;2024-03-22T18:31:43;10.75;;;2.85;;
73266;SDS011;61495;53.400;7.608;2024-03-22T18:35:07;15.40;;;3.72;;
73266;SDS011;61495;53.400;7.608;2024-03-22T18:38:32;16.02;;;3.28;;
73266;SDS011;61495;53.400;7.608;2024-03-22T18:41:56;12.02;;;3.38;;
73266;SDS011;61495;53.400;7.608;2024-03-22T18:45:19;15.25;;;3.47;;
73266;SDS011;61495;53.400;7.608;2024-03-22T18:48:43;10.20;;;2.35;;
73266;SDS011;61495;53.400;7.608;2024-03-22T18:52:07;14.38;;;3.00;;
73266;SDS011;61495;53.400;7.608;2024-03-22T18:55:31;9.32;;;2.30;;
73266;SDS011;61495;53.400;7.608;2024-03-22T18:58:55;10.85;;;4.15;;
73266;SDS011;61495;53.400;7.608;2024-03-22T19:02:19;14.35;;;3.45;;
73266;SDS011;61495;53.400;7.608;2024-03-22T19:05:43;17.48;;;4.53;;
73266;SDS011;61495;53.400;7.608;2024-03-22T19:09:07;17.27;;;2.78;;
73266;SDS011;61495;53.400;7.608;2024-03-22T19:12:32;9.68;;;2.63;;
73266;SDS011;61495;53.400;7.608;2024-03-22T19:15:56;11.05;;;2.58;;
73266;SDS011;61495;53.400;7.608;2024-03-22T19:19:20;12.23;;;2.58;;
73266;SDS011;61495;53.400;7.608;2024-03-22T19:22:44;16.45;;;3.38;;
73266;SDS011;61495;53.400;7.608;2024-03-22T19:26:08;11.45;;;3.28;;
73266;SDS011;61495;53.400;7.608;2024-03-22T19:29:33;16.63;;;3.13;;
73266;SDS011;61495;53.400;7.608;2024-03-22T19:32:57;17.17;;;3.67;;
73266;SDS011;61495;53.400;7.608;2024-03-22T19:36:26;10.38;;;2.83;;
73266;SDS011;61495;53.400;7.608;2024-03-22T19:39:50;11.27;;;2.55;;
73266;SDS011;61495;53.400;7.608;2024-03-22T19:43:14;13.00;;;2.72;;
73266;SDS011;61495;53.400;7.608;2024-03-22T19:46:38;12.30;;;3.08;;
73266;SDS011;61495;53.400;7.608;2024-03-22T19:50:02;12.65;;;3.75;;
73266;SDS011;61495;53.400;7.608;2024-03-22T19:53:26;10.60;;;2.90;;
73266;SDS011;61495;53.400;7.608;2024-03-22T19:56:50;13.05;;;2.50;;
73266;SDS011;61495;53.400;7.608;2024-03-22T20:00:14;14.68;;;3.13;;
73266;SDS011;61495;53.400;7.608;2024-03-22T20:03:39;11.63;;;2.35;;
73266;SDS011;61495;53.400;7.608;2024-03-22T20:07:03;9.82;;;3.03;;
73266;SDS011;61495;53.400;7.608;2024-03-22T20:10:27;12.98;;;2.47;;
73266;SDS011;61495;53.400;7.608;2024-03-22T20:13:51;11.80;;;2.53;;
73266;SDS011;61495;53.400;7.608;2024-03-22T20:17:06;15.90;;;3.92;;
73266;SDS011;61495;53.400;7.608;2024-03-22T20:20:30;8.73;;;2.90;;
73266;SDS011;61495;53.400;7.608;2024-03-22T20:23:54;8.43;;;1.75;;
73266;SDS011;61495;53.400;7.608;2024-03-22T20:27:18;14.55;;;2.63;;